createdAt,value
2018-08-19T00:00:13.863Z,1016.01
2018-08-19T00:01:13.770Z,1016.04
2018-08-19T00:02:13.696Z,1016.02
2018-08-19T00:03:13.609Z,1016.05
2018-08-19T00:04:13.532Z,1015.99
2018-08-19T00:05:13.461Z,1016.00
2018-08-19T00:06:13.371Z,1015.99
2018-08-19T00:07:13.295Z,1016.00
2018-08-19T00:08:13.234Z,1015.97
2018-08-19T00:09:13.134Z,1016.01
2018-08-19T00:10:13.059Z,1016.00
2018-08-19T00:11:12.982Z,1016.05
2018-08-19T00:12:12.895Z,1016.01
2018-08-19T00:13:12.836Z,1016.01
2018-08-19T00:14:12.745Z,1015.99
2018-08-19T00:15:12.659Z,1015.99
2018-08-19T00:16:12.584Z,1015.98
2018-08-19T00:17:12.509Z,1015.99
2018-08-19T00:18:12.421Z,1015.99
2018-08-19T00:19:12.345Z,1015.98
2018-08-19T00:20:12.259Z,1015.97
2018-08-19T00:21:12.184Z,1015.93
2018-08-19T00:22:12.110Z,1015.95
2018-08-19T00:23:12.021Z,1015.94
2018-08-19T00:24:11.960Z,1015.95
2018-08-19T00:25:11.871Z,1015.94
2018-08-19T00:26:11.785Z,1015.97
2018-08-19T00:27:11.710Z,1015.98
2018-08-19T00:28:11.635Z,1015.95
2018-08-19T00:29:11.548Z,1015.95
2018-08-19T00:30:11.472Z,1015.94
2018-08-19T00:31:11.385Z,1015.93
2018-08-19T00:32:11.310Z,1015.97
2018-08-19T00:33:11.236Z,1015.93
2018-08-19T00:34:11.148Z,1015.93
2018-08-19T00:35:11.072Z,1015.89
2018-08-19T00:36:11.011Z,1015.91
2018-08-19T00:37:10.911Z,1015.91
2018-08-19T00:38:10.841Z,1015.92
2018-08-19T00:39:10.749Z,1015.88
2018-08-19T00:40:10.673Z,1015.89
2018-08-19T00:41:10.599Z,1015.86
2018-08-19T00:42:10.512Z,1015.91
2018-08-19T00:43:10.439Z,1015.92
2018-08-19T00:44:10.362Z,1015.96
2018-08-19T00:45:10.274Z,1015.99
2018-08-19T00:46:10.200Z,1016.01
2018-08-19T00:47:10.112Z,1016.04
2018-08-19T00:48:10.038Z,1016.05
2018-08-19T00:49:09.962Z,1016.01
2018-08-19T00:50:09.875Z,1016.01
2018-08-19T00:51:09.801Z,1016.04
2018-08-19T00:52:09.738Z,1015.98
2018-08-19T00:53:09.639Z,1015.97
2018-08-19T00:54:09.563Z,1015.95
2018-08-19T00:55:09.485Z,1015.99
2018-08-19T00:56:09.400Z,1015.98
2018-08-19T00:57:09.328Z,1016.00
2018-08-19T00:58:09.239Z,1015.94
2018-08-19T00:59:09.163Z,1015.98
2018-08-19T01:00:09.088Z,1015.99
2018-08-19T01:01:09.002Z,1015.95
2018-08-19T01:02:08.925Z,1015.96
2018-08-19T01:03:08.840Z,1015.98
2018-08-19T01:04:08.764Z,1015.95
2018-08-19T01:05:08.689Z,1015.97
2018-08-19T01:06:08.602Z,1015.97
2018-08-19T01:07:08.539Z,1015.96
2018-08-19T01:08:08.451Z,1015.99
2018-08-19T01:09:08.367Z,1015.99
2018-08-19T01:10:08.291Z,1015.97
2018-08-19T01:11:08.202Z,1015.95
2018-08-19T01:12:08.142Z,1015.95
2018-08-19T01:13:08.053Z,1015.94
2018-08-19T01:14:07.967Z,1015.93
2018-08-19T01:15:07.890Z,1015.94
2018-08-19T01:16:07.803Z,1015.89
2018-08-19T01:17:07.744Z,1015.91
2018-08-19T01:18:07.652Z,1015.93
2018-08-19T01:19:07.567Z,1015.94
2018-08-19T01:20:07.493Z,1015.92
2018-08-19T01:21:07.405Z,1015.93
2018-08-19T01:22:07.341Z,1015.91
2018-08-19T01:23:07.253Z,1015.96
2018-08-19T01:24:07.167Z,1015.94
2018-08-19T01:25:07.094Z,1015.93
2018-08-19T01:26:07.019Z,1015.96
2018-08-19T01:27:06.942Z,1015.98
2018-08-19T01:28:06.854Z,1015.98
2018-08-19T01:29:06.767Z,1015.99
2018-08-19T01:30:06.694Z,1015.99
2018-08-19T01:31:06.605Z,1015.99
2018-08-19T01:32:06.541Z,1016.00
2018-08-19T01:33:06.454Z,1016.00
2018-08-19T01:34:06.375Z,1016.01
2018-08-19T01:35:06.293Z,1016.05
2018-08-19T01:36:06.206Z,1016.02
2018-08-19T01:37:06.142Z,1016.03
2018-08-19T01:38:06.058Z,1016.04
2018-08-19T01:39:05.969Z,1016.04
2018-08-19T01:40:05.893Z,1016.04
2018-08-19T01:41:05.819Z,1016.03
2018-08-19T01:42:05.730Z,1016.04
2018-08-19T01:43:05.658Z,1016.03
2018-08-19T01:44:05.568Z,1016.06
2018-08-19T01:45:05.496Z,1016.04
2018-08-19T01:46:05.422Z,1016.06
2018-08-19T01:47:05.330Z,1016.07
2018-08-19T01:48:05.255Z,1016.06
2018-08-19T01:49:05.169Z,1016.09
2018-08-19T01:50:05.095Z,1016.05
2018-08-19T01:51:05.008Z,1016.05
2018-08-19T01:52:04.931Z,1016.02
2018-08-19T01:53:04.856Z,1016.05
2018-08-19T01:54:04.770Z,1016.03
2018-08-19T01:55:04.694Z,1016.08
2018-08-19T01:56:04.620Z,1016.04
2018-08-19T01:57:04.532Z,1016.04
2018-08-19T01:58:04.457Z,1016.06
2018-08-19T01:59:04.371Z,1016.04
2018-08-19T02:00:04.296Z,1016.06
2018-08-19T02:01:04.225Z,1016.03
2018-08-19T02:02:04.133Z,1016.05
2018-08-19T02:03:04.059Z,1016.04
2018-08-19T02:04:03.971Z,1016.05
2018-08-19T02:05:03.897Z,1016.04
2018-08-19T02:06:03.824Z,1016.04
2018-08-19T02:07:03.733Z,1016.06
2018-08-19T02:08:03.659Z,1016.05
2018-08-19T02:09:03.584Z,1016.01
2018-08-19T02:10:03.544Z,1016.04
2018-08-19T02:11:03.409Z,1016.04
2018-08-19T02:12:03.336Z,1016.06
2018-08-19T02:13:03.258Z,1016.05
2018-08-19T02:14:03.172Z,1016.03
2018-08-19T02:15:03.097Z,1016.05
2018-08-19T02:16:03.010Z,1016.04
2018-08-19T02:17:02.934Z,1016.03
2018-08-19T02:18:02.877Z,1016.05
2018-08-19T02:19:02.772Z,1016.02
2018-08-19T02:20:02.702Z,1016.05
2018-08-19T02:21:02.611Z,1016.03
2018-08-19T02:22:02.534Z,1016.03
2018-08-19T02:23:02.473Z,1016.05
2018-08-19T02:24:02.373Z,1016.04
2018-08-19T02:25:02.300Z,1016.05
2018-08-19T02:26:02.211Z,1016.01
2018-08-19T02:27:02.135Z,1016.04
2018-08-19T02:28:02.073Z,1016.00
2018-08-19T02:29:01.973Z,1015.97
2018-08-19T02:30:01.900Z,1015.96
2018-08-19T02:31:01.813Z,1015.97
2018-08-19T02:32:01.736Z,1015.97
2018-08-19T02:33:01.661Z,1015.96
2018-08-19T02:34:01.575Z,1015.93
2018-08-19T02:35:01.499Z,1015.92
2018-08-19T02:36:01.411Z,1015.94
2018-08-19T02:37:01.336Z,1015.92
2018-08-19T02:38:01.262Z,1015.91
2018-08-19T02:39:01.175Z,1015.92
2018-08-19T02:40:01.100Z,1015.93
2018-08-19T02:41:01.013Z,1015.88
2018-08-19T02:42:00.937Z,1015.90
2018-08-19T02:43:00.850Z,1015.91
2018-08-19T02:44:00.775Z,1015.90
2018-08-19T02:45:00.688Z,1015.87
2018-08-19T02:46:00.612Z,1015.91
2018-08-19T02:47:00.537Z,1015.85
2018-08-19T02:48:00.450Z,1015.87
2018-08-19T02:49:00.376Z,1015.84
2018-08-19T02:50:00.300Z,1015.86
2018-08-19T02:51:00.213Z,1015.85
2018-08-19T02:52:00.137Z,1015.90
2018-08-19T02:53:00.051Z,1015.87
2018-08-19T02:53:59.977Z,1015.88
2018-08-19T02:54:59.888Z,1015.88
2018-08-19T02:55:59.812Z,1015.89
2018-08-19T02:56:59.729Z,1015.89
2018-08-19T02:57:59.652Z,1015.88
2018-08-19T02:58:59.564Z,1015.87
2018-08-19T02:59:59.488Z,1015.91
2018-08-19T03:00:59.415Z,1015.89
2018-08-19T03:01:59.328Z,1015.88
2018-08-19T03:02:59.252Z,1015.89
2018-08-19T03:03:59.164Z,1015.88
2018-08-19T03:04:59.089Z,1015.87
2018-08-19T03:05:59.014Z,1015.85
2018-08-19T03:06:58.927Z,1015.83
2018-08-19T03:07:58.852Z,1015.88
2018-08-19T03:08:58.765Z,1015.83
2018-08-19T03:09:58.690Z,1015.83
2018-08-19T03:10:58.606Z,1015.85
2018-08-19T03:11:58.528Z,1015.87
2018-08-19T03:12:58.452Z,1015.85
2018-08-19T03:13:58.366Z,1015.85
2018-08-19T03:14:58.300Z,1015.85
2018-08-19T03:15:58.203Z,1015.88
2018-08-19T03:16:58.142Z,1015.86
2018-08-19T03:17:58.041Z,1015.85
2018-08-19T03:18:57.965Z,1015.82
2018-08-19T03:19:57.883Z,1015.85
2018-08-19T03:20:57.804Z,1015.82
2018-08-19T03:21:57.729Z,1015.81
2018-08-19T03:22:57.641Z,1015.84
2018-08-19T03:23:57.567Z,1015.85
2018-08-19T03:24:57.479Z,1015.86
2018-08-19T03:25:57.405Z,1015.88
2018-08-19T03:26:57.317Z,1015.91
2018-08-19T03:27:57.242Z,1015.89
2018-08-19T03:28:57.185Z,1015.88
2018-08-19T03:29:57.080Z,1015.90
2018-08-19T03:30:57.005Z,1015.89
2018-08-19T03:31:56.917Z,1015.87
2018-08-19T03:32:56.842Z,1015.88
2018-08-19T03:33:56.755Z,1015.85
2018-08-19T03:34:56.680Z,1015.81
2018-08-19T03:35:56.593Z,1015.84
2018-08-19T03:36:56.517Z,1015.79
2018-08-19T03:37:56.464Z,1015.83
2018-08-19T03:38:56.356Z,1015.84
2018-08-19T03:39:56.282Z,1015.77
2018-08-19T03:40:56.193Z,1015.85
2018-08-19T03:41:56.118Z,1015.79
2018-08-19T03:42:56.043Z,1015.81
2018-08-19T03:43:55.956Z,1015.80
2018-08-19T03:44:55.882Z,1015.79
2018-08-19T03:45:55.793Z,1015.80
2018-08-19T03:46:55.720Z,1015.87
2018-08-19T03:47:55.632Z,1015.87
2018-08-19T03:48:55.559Z,1015.92
2018-08-19T03:49:55.482Z,1015.91
2018-08-19T03:50:55.397Z,1015.91
2018-08-19T03:51:55.308Z,1015.91
2018-08-19T03:52:55.247Z,1015.92
2018-08-19T03:53:55.158Z,1015.94
2018-08-19T03:54:55.069Z,1015.94
2018-08-19T03:55:54.995Z,1015.94
2018-08-19T03:56:54.908Z,1015.97
2018-08-19T03:57:54.837Z,1015.93
2018-08-19T03:58:54.746Z,1015.91
2018-08-19T03:59:54.670Z,1015.95
2018-08-19T04:00:54.595Z,1015.97
2018-08-19T04:01:54.508Z,1016.00
2018-08-19T04:02:54.433Z,1015.98
2018-08-19T04:03:54.345Z,1016.01
2018-08-19T04:04:54.270Z,1015.97
2018-08-19T04:05:54.184Z,1016.00
2018-08-19T04:06:54.109Z,1016.01
2018-08-19T04:07:54.021Z,1016.01
2018-08-19T04:08:53.946Z,1016.04
2018-08-19T04:09:53.870Z,1016.01
2018-08-19T04:10:53.783Z,1016.07
2018-08-19T04:11:53.710Z,1016.04
2018-08-19T04:12:53.621Z,1016.14
2018-08-19T04:13:53.547Z,1016.09
2018-08-19T04:14:53.460Z,1016.08
2018-08-19T04:15:53.384Z,1016.12
2018-08-19T04:16:53.299Z,1016.10
2018-08-19T04:17:53.222Z,1016.16
2018-08-19T04:18:53.205Z,1016.15
2018-08-19T04:19:53.060Z,1016.11
2018-08-19T04:20:52.986Z,1016.12
2018-08-19T04:21:52.898Z,1016.10
2018-08-19T04:22:52.823Z,1016.07
2018-08-19T04:23:52.736Z,1016.11
2018-08-19T04:24:52.661Z,1016.08
2018-08-19T04:25:52.587Z,1016.12
2018-08-19T04:26:52.510Z,1016.13
2018-08-19T04:27:52.422Z,1016.13
2018-08-19T04:28:52.340Z,1016.13
2018-08-19T04:29:52.261Z,1016.16
2018-08-19T04:30:52.173Z,1016.13
2018-08-19T04:31:52.111Z,1016.16
2018-08-19T04:32:52.023Z,1016.18
2018-08-19T04:33:51.938Z,1016.18
2018-08-19T04:34:51.861Z,1016.20
2018-08-19T04:35:51.774Z,1016.18
2018-08-19T04:36:51.699Z,1016.19
2018-08-19T04:37:51.623Z,1016.22
2018-08-19T04:38:51.538Z,1016.20
2018-08-19T04:39:51.463Z,1016.21
2018-08-19T04:40:51.374Z,1016.21
2018-08-19T04:41:51.301Z,1016.22
2018-08-19T04:42:51.212Z,1016.19
2018-08-19T04:43:51.142Z,1016.22
2018-08-19T04:44:51.062Z,1016.22
2018-08-19T04:45:50.975Z,1016.24
2018-08-19T04:46:50.901Z,1016.25
2018-08-19T04:47:50.813Z,1016.24
2018-08-19T04:48:50.738Z,1016.28
2018-08-19T04:49:50.652Z,1016.27
2018-08-19T04:50:50.578Z,1016.30
2018-08-19T04:51:50.500Z,1016.26
2018-08-19T04:52:50.413Z,1016.29
2018-08-19T04:53:50.342Z,1016.29
2018-08-19T04:54:50.251Z,1016.30
2018-08-19T04:55:50.177Z,1016.29
2018-08-19T04:56:50.101Z,1016.30
2018-08-19T04:57:50.014Z,1016.29
2018-08-19T04:58:49.939Z,1016.28
2018-08-19T04:59:49.857Z,1016.26
2018-08-19T05:00:49.777Z,1016.30
2018-08-19T05:01:49.708Z,1016.30
2018-08-19T05:02:49.616Z,1016.34
2018-08-19T05:03:49.540Z,1016.35
2018-08-19T05:04:49.454Z,1016.35
2018-08-19T05:05:49.376Z,1016.31
2018-08-19T05:06:49.302Z,1016.31
2018-08-19T05:07:49.247Z,1016.32
2018-08-19T05:08:49.140Z,1016.28
2018-08-19T05:09:49.065Z,1016.33
2018-08-19T05:10:49.015Z,1016.30
2018-08-19T05:11:48.902Z,1016.34
2018-08-19T05:12:48.816Z,1016.34
2018-08-19T05:13:48.741Z,1016.34
2018-08-19T05:14:48.668Z,1016.36
2018-08-19T05:15:48.579Z,1016.38
2018-08-19T05:16:48.503Z,1016.40
2018-08-19T05:17:48.429Z,1016.36
2018-08-19T05:18:48.342Z,1016.39
2018-08-19T05:19:48.268Z,1016.36
2018-08-19T05:20:48.193Z,1016.35
2018-08-19T05:21:48.104Z,1016.39
2018-08-19T05:22:48.029Z,1016.38
2018-08-19T05:23:47.942Z,1016.41
2018-08-19T05:24:47.868Z,1016.38
2018-08-19T05:25:47.793Z,1016.39
2018-08-19T05:26:47.706Z,1016.39
2018-08-19T05:27:47.630Z,1016.37
2018-08-19T05:28:47.555Z,1016.37
2018-08-19T05:29:47.469Z,1016.37
2018-08-19T05:30:47.392Z,1016.37
2018-08-19T05:31:47.318Z,1016.35
2018-08-19T05:32:47.230Z,1016.36
2018-08-19T05:33:47.156Z,1016.36
2018-08-19T05:34:47.081Z,1016.36
2018-08-19T05:35:46.995Z,1016.36
2018-08-19T05:36:46.919Z,1016.37
2018-08-19T05:37:46.843Z,1016.38
2018-08-19T05:38:46.756Z,1016.40
2018-08-19T05:39:46.682Z,1016.43
2018-08-19T05:40:46.605Z,1016.45
2018-08-19T05:41:46.531Z,1016.44
2018-08-19T05:42:46.444Z,1016.45
2018-08-19T05:43:46.370Z,1016.42
2018-08-19T05:44:46.295Z,1016.44
2018-08-19T05:45:46.208Z,1016.43
2018-08-19T05:46:46.132Z,1016.43
2018-08-19T05:47:46.057Z,1016.43
2018-08-19T05:48:45.970Z,1016.43
2018-08-19T05:49:45.896Z,1016.41
2018-08-19T05:50:45.820Z,1016.41
2018-08-19T05:51:45.733Z,1016.39
2018-08-19T05:52:45.657Z,1016.40
2018-08-19T05:53:45.582Z,1016.41
2018-08-19T05:54:45.496Z,1016.44
2018-08-19T05:55:45.430Z,1016.43
2018-08-19T05:56:45.346Z,1016.38
2018-08-19T05:57:45.271Z,1016.41
2018-08-19T05:58:45.183Z,1016.41
2018-08-19T05:59:45.121Z,1016.42
2018-08-19T06:00:45.033Z,1016.45
2018-08-19T06:01:44.947Z,1016.50
2018-08-19T06:02:44.873Z,1016.49
2018-08-19T06:03:44.797Z,1016.52
2018-08-19T06:04:44.726Z,1016.50
2018-08-19T06:05:44.633Z,1016.50
2018-08-19T06:06:44.560Z,1016.55
2018-08-19T06:07:44.585Z,1016.57
2018-08-19T06:08:44.398Z,1016.58
2018-08-19T06:09:44.322Z,1016.56
2018-08-19T06:10:44.248Z,1016.57
2018-08-19T06:11:44.173Z,1016.58
2018-08-19T06:12:44.084Z,1016.59
2018-08-19T06:13:44.010Z,1016.56
2018-08-19T06:14:43.934Z,1016.59
2018-08-19T06:15:43.859Z,1016.57
2018-08-19T06:16:43.774Z,1016.59
2018-08-19T06:17:43.704Z,1016.58
2018-08-19T06:18:43.624Z,1016.60
2018-08-19T06:19:43.535Z,1016.56
2018-08-19T06:20:43.473Z,1016.60
2018-08-19T06:21:43.385Z,1016.56
2018-08-19T06:22:43.310Z,1016.56
2018-08-19T06:23:43.223Z,1016.59
2018-08-19T06:24:43.214Z,1016.57
2018-08-19T06:25:43.074Z,1016.63
2018-08-19T06:26:43.000Z,1016.57
2018-08-19T06:27:42.914Z,1016.59
2018-08-19T06:28:42.836Z,1016.59
2018-08-19T06:29:42.762Z,1016.58
2018-08-19T06:30:42.686Z,1016.62
2018-08-19T06:31:42.601Z,1016.55
2018-08-19T06:32:42.524Z,1016.58
2018-08-19T06:33:42.449Z,1016.61
2018-08-19T06:34:42.395Z,1016.65
2018-08-19T06:35:42.300Z,1016.67
2018-08-19T06:36:42.214Z,1016.63
2018-08-19T06:37:42.137Z,1016.67
2018-08-19T06:38:42.061Z,1016.66
2018-08-19T06:39:42.000Z,1016.59
2018-08-19T06:40:41.900Z,1016.61
2018-08-19T06:41:41.825Z,1016.61
2018-08-19T06:42:41.750Z,1016.60
2018-08-19T06:43:41.676Z,1016.60
2018-08-19T06:44:41.592Z,1016.60
2018-08-19T06:45:41.512Z,1016.57
2018-08-19T06:46:41.437Z,1016.59
2018-08-19T06:47:41.362Z,1016.59
2018-08-19T06:48:41.288Z,1016.58
2018-08-19T06:49:41.201Z,1016.60
2018-08-19T06:50:41.127Z,1016.57
2018-08-19T06:51:41.053Z,1016.54
2018-08-19T06:52:40.983Z,1016.58
2018-08-19T06:53:40.902Z,1016.59
2018-08-19T06:54:40.814Z,1016.56
2018-08-19T06:55:40.740Z,1016.58
2018-08-19T06:56:40.663Z,1016.57
2018-08-19T06:57:40.591Z,1016.52
2018-08-19T06:58:40.514Z,1016.52
2018-08-19T06:59:40.428Z,1016.53
2018-08-19T07:00:40.353Z,1016.55
2018-08-19T07:01:40.279Z,1016.52
2018-08-19T07:02:40.204Z,1016.52
2018-08-19T07:03:40.148Z,1016.54
2018-08-19T07:04:40.053Z,1016.53
2018-08-19T07:05:39.965Z,1016.59
2018-08-19T07:06:39.891Z,1016.58
2018-08-19T07:07:39.815Z,1016.56
2018-08-19T07:08:39.740Z,1016.56
2018-08-19T07:09:39.665Z,1016.56
2018-08-19T07:10:39.579Z,1016.57
2018-08-19T07:11:39.504Z,1016.54
2018-08-19T07:12:39.470Z,1016.54
2018-08-19T07:13:39.358Z,1016.58
2018-08-19T07:14:39.279Z,1016.56
2018-08-19T07:15:39.294Z,1016.60
2018-08-19T07:16:39.129Z,1016.60
2018-08-19T07:17:39.042Z,1016.62
2018-08-19T07:18:38.984Z,1016.62
2018-08-19T07:19:38.891Z,1016.62
2018-08-19T07:20:38.817Z,1016.63
2018-08-19T07:21:38.741Z,1016.65
2018-08-19T07:22:38.680Z,1016.66
2018-08-19T07:23:38.655Z,1016.64
2018-08-19T07:24:38.517Z,1016.64
2018-08-19T07:25:38.443Z,1016.65
2018-08-19T07:26:38.356Z,1016.67
2018-08-19T07:27:38.283Z,1016.70
2018-08-19T07:28:38.206Z,1016.64
2018-08-19T07:29:38.163Z,1016.68
2018-08-19T07:30:38.056Z,1016.70
2018-08-19T07:31:37.982Z,1016.66
2018-08-19T07:32:37.907Z,1016.64
2018-08-19T07:33:37.832Z,1016.67
2018-08-19T07:34:37.757Z,1016.65
2018-08-19T07:35:37.681Z,1016.66
2018-08-19T07:36:37.607Z,1016.67
2018-08-19T07:37:37.522Z,1016.67
2018-08-19T07:38:37.445Z,1016.65
2018-08-19T07:39:37.369Z,1016.65
2018-08-19T07:40:37.294Z,1016.67
2018-08-19T07:41:37.219Z,1016.67
2018-08-19T07:42:37.143Z,1016.64
2018-08-19T07:43:37.069Z,1016.69
2018-08-19T07:44:36.998Z,1016.67
2018-08-19T07:45:36.933Z,1016.72
2018-08-19T07:46:36.859Z,1016.72
2018-08-19T07:47:36.783Z,1016.78
2018-08-19T07:48:36.709Z,1016.79
2018-08-19T07:49:36.634Z,1016.73
2018-08-19T07:50:36.578Z,1016.75
2018-08-19T07:51:36.509Z,1016.70
2018-08-19T07:52:36.409Z,1016.70
2018-08-19T07:53:36.346Z,1016.67
2018-08-19T07:54:36.271Z,1016.71
2018-08-19T07:55:36.202Z,1016.67
2018-08-19T07:56:36.122Z,1016.70
2018-08-19T07:57:36.059Z,1016.74
2018-08-19T07:58:35.984Z,1016.73
2018-08-19T07:59:35.910Z,1016.71
2018-08-19T08:00:35.846Z,1016.73
2018-08-19T08:01:35.773Z,1016.72
2018-08-19T08:02:35.714Z,1016.71
2018-08-19T08:03:35.762Z,1016.68
2018-08-19T08:04:35.563Z,1016.68
2018-08-19T08:05:35.496Z,1016.67
2018-08-19T08:06:35.422Z,1016.67
2018-08-19T08:07:35.360Z,1016.69
2018-08-19T08:08:35.285Z,1016.70
2018-08-19T08:09:35.225Z,1016.68
2018-08-19T08:10:35.152Z,1016.72
2018-08-19T08:11:35.085Z,1016.68
2018-08-19T08:12:35.025Z,1016.69
2018-08-19T08:13:34.963Z,1016.68
2018-08-19T08:14:34.879Z,1016.69
2018-08-19T08:15:34.812Z,1016.71
2018-08-19T08:16:34.736Z,1016.69
2018-08-19T08:17:34.673Z,1016.72
2018-08-19T08:18:34.597Z,1016.73
2018-08-19T08:19:34.536Z,1016.66
2018-08-19T08:20:34.461Z,1016.66
2018-08-19T08:21:34.503Z,1016.66
2018-08-19T08:22:34.327Z,1016.63
2018-08-19T08:23:34.262Z,1016.64
2018-08-19T08:24:34.200Z,1016.67
2018-08-19T08:25:34.124Z,1016.66
2018-08-19T08:26:34.062Z,1016.65
2018-08-19T08:27:33.999Z,1016.67
2018-08-19T08:28:33.938Z,1016.67
2018-08-19T08:29:33.863Z,1016.66
2018-08-19T08:30:33.790Z,1016.62
2018-08-19T08:31:33.725Z,1016.67
2018-08-19T08:32:33.663Z,1016.62
2018-08-19T08:33:33.587Z,1016.60
2018-08-19T08:34:33.525Z,1016.63
2018-08-19T08:35:33.463Z,1016.65
2018-08-19T08:36:33.388Z,1016.65
2018-08-19T08:37:33.326Z,1016.62
2018-08-19T08:38:33.253Z,1016.60
2018-08-19T08:39:33.189Z,1016.60
2018-08-19T08:40:33.138Z,1016.63
2018-08-19T08:41:33.051Z,1016.61
2018-08-19T08:42:32.989Z,1016.60
2018-08-19T08:43:32.925Z,1016.59
2018-08-19T08:44:32.873Z,1016.55
2018-08-19T08:45:32.788Z,1016.58
2018-08-19T08:46:32.716Z,1016.58
2018-08-19T08:47:32.750Z,1016.61
2018-08-19T08:48:32.589Z,1016.62
2018-08-19T08:49:32.516Z,1016.62
2018-08-19T08:50:32.451Z,1016.64
2018-08-19T08:51:32.393Z,1016.64
2018-08-19T08:52:32.318Z,1016.60
2018-08-19T08:53:32.252Z,1016.62
2018-08-19T08:54:32.190Z,1016.61
2018-08-19T08:55:32.127Z,1016.64
2018-08-19T08:56:32.066Z,1016.64
2018-08-19T08:57:31.990Z,1016.60
2018-08-19T08:58:31.927Z,1016.57
2018-08-19T08:59:31.866Z,1016.61
2018-08-19T09:00:31.795Z,1016.61
2018-08-19T09:01:31.729Z,1016.65
2018-08-19T09:02:31.666Z,1016.61
2018-08-19T09:03:31.590Z,1016.60
2018-08-19T09:04:31.528Z,1016.61
2018-08-19T09:05:31.454Z,1016.61
2018-08-19T09:06:31.391Z,1016.63
2018-08-19T09:07:31.331Z,1016.59
2018-08-19T09:08:31.266Z,1016.57
2018-08-19T09:09:31.192Z,1016.55
2018-08-19T09:10:31.129Z,1016.60
2018-08-19T09:11:31.067Z,1016.54
2018-08-19T09:12:30.995Z,1016.56
2018-08-19T09:13:30.929Z,1016.58
2018-08-19T09:14:30.868Z,1016.56
2018-08-19T09:15:30.806Z,1016.55
2018-08-19T09:16:30.731Z,1016.55
2018-08-19T09:17:30.668Z,1016.54
2018-08-19T09:18:30.606Z,1016.52
2018-08-19T09:19:30.544Z,1016.52
2018-08-19T09:20:30.480Z,1016.51
2018-08-19T09:21:30.405Z,1016.49
2018-08-19T09:22:30.343Z,1016.52
2018-08-19T09:23:30.352Z,1016.53
2018-08-19T09:24:30.219Z,1016.48
2018-08-19T09:25:30.155Z,1016.50
2018-08-19T09:26:30.081Z,1016.51
2018-08-19T09:27:30.019Z,1016.48
2018-08-19T09:28:29.958Z,1016.47
2018-08-19T09:29:29.893Z,1016.47
2018-08-19T09:30:29.820Z,1016.47
2018-08-19T09:31:29.757Z,1016.49
2018-08-19T09:32:29.696Z,1016.45
2018-08-19T09:33:29.632Z,1016.49
2018-08-19T09:34:29.570Z,1016.49
2018-08-19T09:35:29.496Z,1016.47
2018-08-19T09:36:29.431Z,1016.46
2018-08-19T09:37:29.370Z,1016.49
2018-08-19T09:38:29.306Z,1016.41
2018-08-19T09:39:29.245Z,1016.44
2018-08-19T09:40:29.171Z,1016.41
2018-08-19T09:41:29.108Z,1016.36
2018-08-19T09:42:29.046Z,1016.34
2018-08-19T09:43:28.983Z,1016.30
2018-08-19T09:44:28.907Z,1016.30
2018-08-19T09:45:28.846Z,1016.24
2018-08-19T09:46:28.782Z,1016.20
2018-08-19T09:47:28.732Z,1016.25
2018-08-19T09:48:28.647Z,1016.27
2018-08-19T09:49:28.584Z,1016.44
2018-08-19T09:50:28.509Z,1016.24
2018-08-19T09:51:28.448Z,1016.25
2018-08-19T09:52:28.384Z,1016.16
2018-08-19T09:53:28.309Z,1016.12
2018-08-19T09:54:28.247Z,1016.14
2018-08-19T09:55:28.184Z,1016.12
2018-08-19T09:56:28.108Z,1016.14
2018-08-19T09:57:28.063Z,1016.15
2018-08-19T09:58:27.974Z,1016.14
2018-08-19T09:59:27.909Z,1016.10
2018-08-19T10:00:27.834Z,1016.11
2018-08-19T10:01:27.808Z,1016.10
2018-08-19T10:02:27.698Z,1016.12
2018-08-19T10:03:27.664Z,1016.09
2018-08-19T10:04:27.560Z,1016.05
2018-08-19T10:05:27.497Z,1016.04
2018-08-19T10:06:27.427Z,1016.04
2018-08-19T10:07:27.412Z,1016.00
2018-08-19T10:08:27.300Z,1016.02
2018-08-19T10:09:27.228Z,1015.95
2018-08-19T10:10:27.148Z,1015.97
2018-08-19T10:11:27.099Z,1015.92
2018-08-19T10:12:27.011Z,1015.92
2018-08-19T10:13:26.950Z,1015.94
2018-08-19T10:14:26.875Z,1015.92
2018-08-19T10:15:26.799Z,1015.90
2018-08-19T10:16:26.736Z,1015.90
2018-08-19T10:17:26.660Z,1015.92
2018-08-19T10:18:26.599Z,1015.90
2018-08-19T10:19:26.524Z,1015.90
2018-08-19T10:20:26.461Z,1015.84
2018-08-19T10:21:26.387Z,1015.84
2018-08-19T10:22:26.324Z,1015.78
2018-08-19T10:23:26.254Z,1015.77
2018-08-19T10:24:26.187Z,1015.82
2018-08-19T10:25:26.125Z,1015.84
2018-08-19T10:26:26.063Z,1015.80
2018-08-19T10:27:25.962Z,1015.80
2018-08-19T10:28:25.902Z,1015.76
2018-08-19T10:29:25.825Z,1015.75
2018-08-19T10:30:25.761Z,1015.80
2018-08-19T10:31:25.706Z,1015.77
2018-08-19T10:32:25.612Z,1015.78
2018-08-19T10:33:25.550Z,1015.77
2018-08-19T10:34:25.476Z,1015.71
2018-08-19T10:35:25.412Z,1015.75
2018-08-19T10:36:25.338Z,1015.69
2018-08-19T10:37:25.276Z,1015.69
2018-08-19T10:38:25.207Z,1015.69
2018-08-19T10:39:25.131Z,1015.69
2018-08-19T10:40:25.052Z,1015.72
2018-08-19T10:41:24.988Z,1015.66
2018-08-19T10:42:24.915Z,1015.60
2018-08-19T10:43:24.851Z,1015.60
2018-08-19T10:44:24.777Z,1015.59
2018-08-19T10:45:24.703Z,1015.57
2018-08-19T10:46:24.639Z,1015.58
2018-08-19T10:47:24.564Z,1015.58
2018-08-19T10:48:24.510Z,1015.54
2018-08-19T10:49:24.428Z,1015.50
2018-08-19T10:50:24.353Z,1015.49
2018-08-19T10:51:24.292Z,1015.63
2018-08-19T10:52:24.214Z,1015.64
2018-08-19T10:53:24.162Z,1015.69
2018-08-19T10:54:24.079Z,1015.67
2018-08-19T10:55:24.014Z,1015.65
2018-08-19T10:56:23.940Z,1015.65
2018-08-19T10:57:23.867Z,1015.75
2018-08-19T10:58:23.812Z,1015.71
2018-08-19T10:59:23.728Z,1015.64
2018-08-19T11:00:23.666Z,1015.63
2018-08-19T11:01:23.591Z,1015.62
2018-08-19T11:02:23.529Z,1015.58
2018-08-19T11:03:23.465Z,1015.56
2018-08-19T11:04:23.391Z,1015.55
2018-08-19T11:05:23.329Z,1015.51
2018-08-19T11:06:23.255Z,1015.47
2018-08-19T11:07:23.191Z,1015.47
2018-08-19T11:08:23.133Z,1015.41
2018-08-19T11:09:23.056Z,1015.48
2018-08-19T11:10:22.992Z,1015.38
2018-08-19T11:11:22.930Z,1015.42
2018-08-19T11:12:22.855Z,1015.47
2018-08-19T11:13:22.801Z,1015.50
2018-08-19T11:14:22.737Z,1015.47
2018-08-19T11:15:22.655Z,1015.45
2018-08-19T11:16:22.592Z,1015.43
2018-08-19T11:17:22.531Z,1015.40
2018-08-19T11:18:22.455Z,1015.36
2018-08-19T11:19:22.392Z,1015.35
2018-08-19T11:20:22.330Z,1015.32
2018-08-19T11:21:22.267Z,1015.32
2018-08-19T11:22:22.194Z,1015.33
2018-08-19T11:23:22.131Z,1015.33
2018-08-19T11:24:22.082Z,1015.34
2018-08-19T11:25:22.011Z,1015.35
2018-08-19T11:26:21.956Z,1015.42
2018-08-19T11:27:21.881Z,1015.38
2018-08-19T11:28:21.821Z,1015.35
2018-08-19T11:29:21.745Z,1015.41
2018-08-19T11:30:21.682Z,1015.39
2018-08-19T11:31:21.646Z,1015.40
2018-08-19T11:32:21.557Z,1015.36
2018-08-19T11:33:21.494Z,1015.38
2018-08-19T11:34:21.433Z,1015.34
2018-08-19T11:35:21.371Z,1015.31
2018-08-19T11:36:21.313Z,1015.29
2018-08-19T11:37:21.245Z,1015.28
2018-08-19T11:38:21.170Z,1015.26
2018-08-19T11:39:21.108Z,1015.26
2018-08-19T11:40:21.045Z,1015.24
2018-08-19T11:41:20.983Z,1015.25
2018-08-19T11:42:20.920Z,1015.24
2018-08-19T11:43:20.910Z,1015.18
2018-08-19T11:44:20.795Z,1015.22
2018-08-19T11:45:20.734Z,1015.16
2018-08-19T11:46:20.670Z,1015.07
2018-08-19T11:47:20.609Z,1015.11
2018-08-19T11:48:20.546Z,1015.18
2018-08-19T11:49:20.472Z,1015.11
2018-08-19T11:50:20.410Z,1015.11
2018-08-19T11:51:20.346Z,1015.10
2018-08-19T11:52:20.284Z,1015.13
2018-08-19T11:53:20.221Z,1015.09
2018-08-19T11:54:20.160Z,1015.10
2018-08-19T11:55:20.170Z,1015.07
2018-08-19T11:56:20.035Z,1015.06
2018-08-19T11:57:19.972Z,1015.06
2018-08-19T11:58:19.916Z,1015.02
2018-08-19T11:59:19.851Z,1014.99
2018-08-19T12:00:19.773Z,1014.99
2018-08-19T12:01:19.711Z,1014.99
2018-08-19T12:02:19.647Z,1014.94
2018-08-19T12:03:19.589Z,1014.96
2018-08-19T12:04:19.523Z,1014.93